createdAt,value
2018-01-19T00:00:17.224Z,14.70
2018-01-19T00:02:45.368Z,10.80
2018-01-19T00:05:13.468Z,13.90
2018-01-19T00:07:41.591Z,19.03
2018-01-19T00:10:10.472Z,18.77
2018-01-19T00:12:38.603Z,12.93
2018-01-19T00:15:06.710Z,23.40
2018-01-19T00:17:34.834Z,14.80
2018-01-19T00:20:02.934Z,14.17
2018-01-19T00:22:41.960Z,12.20
2018-01-19T00:25:10.068Z,16.03
2018-01-19T00:27:38.961Z,17.40
2018-01-19T00:30:07.845Z,14.00
2018-01-19T00:32:36.414Z,24.80
2018-01-19T00:35:04.536Z,21.43
2018-01-19T00:37:32.659Z,15.57
2018-01-19T00:40:00.780Z,17.53
2018-01-19T00:42:28.922Z,16.90
2018-01-19T00:44:57.031Z,22.17
2018-01-19T00:47:25.173Z,23.53
2018-01-19T00:49:54.053Z,14.07
2018-01-19T00:52:22.178Z,14.80
2018-01-19T00:54:50.293Z,15.63
2018-01-19T00:57:18.422Z,16.17
2018-01-19T00:59:46.571Z,17.50
2018-01-19T01:02:14.708Z,23.70
2018-01-19T01:04:42.836Z,16.57
2018-01-19T01:07:10.959Z,14.80
2018-01-19T01:09:39.086Z,16.63
2018-01-19T01:12:07.229Z,13.43
2018-01-19T01:14:36.103Z,18.43
2018-01-19T01:17:04.502Z,15.20
2018-01-19T01:19:32.621Z,25.10
2018-01-19T01:22:00.760Z,24.87
2018-01-19T01:24:28.922Z,15.23
2018-01-19T01:26:57.493Z,16.07
2018-01-19T01:29:25.616Z,17.00
2018-01-19T01:31:53.757Z,22.20
2018-01-19T01:34:22.647Z,14.97
2018-01-19T01:36:51.539Z,15.23
2018-01-19T01:39:20.418Z,16.67
2018-01-19T01:41:49.315Z,25.77
2018-01-19T01:44:18.191Z,17.30
2018-01-19T01:46:46.329Z,18.10
2018-01-19T01:49:14.444Z,13.77
2018-01-19T01:51:43.351Z,22.20
2018-01-19T01:54:11.457Z,17.20
2018-01-19T01:56:39.608Z,22.83
2018-01-19T01:59:07.720Z,16.80
2018-01-19T02:01:35.853Z,25.30
2018-01-19T02:04:04.411Z,24.07
2018-01-19T02:06:33.306Z,21.17
2018-01-19T02:09:02.186Z,24.60
2018-01-19T02:11:30.318Z,15.57
2018-01-19T02:13:58.423Z,18.30
2018-01-19T02:16:26.575Z,21.43
2018-01-19T02:18:54.686Z,22.33
2018-01-19T02:21:23.590Z,22.40
2018-01-19T02:23:51.709Z,24.20
2018-01-19T02:26:19.840Z,17.20
2018-01-19T02:28:47.967Z,17.37
2018-01-19T02:31:16.087Z,20.40
2018-01-19T02:33:44.235Z,24.47
2018-01-19T02:36:13.124Z,21.00
2018-01-19T02:38:42.049Z,20.13
2018-01-19T02:41:10.182Z,21.43
2018-01-19T02:43:38.313Z,22.53
2018-01-19T02:46:06.435Z,17.47
2018-01-19T02:48:34.590Z,19.60
2018-01-19T02:51:03.078Z,20.57
2018-01-19T02:53:31.238Z,33.57
2018-01-19T02:55:59.348Z,19.20
2018-01-19T02:58:28.249Z,25.60
2018-01-19T03:00:56.357Z,23.40
2018-01-19T03:03:24.503Z,20.63
2018-01-19T03:05:52.619Z,19.00
2018-01-19T03:08:20.746Z,23.90
2018-01-19T03:10:48.862Z,19.47
2018-01-19T03:13:17.012Z,17.60
2018-01-19T03:15:45.602Z,25.90
2018-01-19T03:18:13.758Z,23.77
2018-01-19T03:20:41.874Z,22.50
2018-01-19T03:23:10.006Z,23.13
2018-01-19T03:25:38.122Z,24.30
2018-01-19T03:28:06.275Z,21.30
2018-01-19T03:30:34.457Z,21.23
2018-01-19T03:33:03.730Z,20.07
2018-01-19T03:35:31.844Z,19.60
2018-01-19T03:37:59.968Z,17.87
2018-01-19T03:40:28.606Z,20.17
2018-01-19T03:42:56.747Z,23.97
2018-01-19T03:45:24.884Z,25.13
2018-01-19T03:47:53.778Z,19.20
2018-01-19T03:50:21.896Z,20.77
2018-01-19T03:52:50.026Z,25.33
2018-01-19T03:55:18.138Z,29.57
2018-01-19T03:57:46.270Z,20.53
2018-01-19T04:00:14.387Z,32.73
2018-01-19T04:02:42.519Z,25.13
2018-01-19T04:05:10.633Z,20.40
2018-01-19T04:07:38.806Z,29.13
2018-01-19T04:10:06.936Z,25.90
2018-01-19T04:12:35.088Z,27.17
2018-01-19T04:15:03.470Z,23.57
2018-01-19T04:17:31.610Z,25.90
2018-01-19T04:19:59.721Z,22.00
2018-01-19T04:22:28.631Z,27.80
2018-01-19T04:24:56.746Z,23.30
2018-01-19T04:27:24.884Z,22.90
2018-01-19T04:29:52.994Z,23.73
2018-01-19T04:32:21.148Z,24.07
2018-01-19T04:34:49.251Z,18.63
2018-01-19T04:37:17.395Z,29.40
2018-01-19T04:39:45.508Z,30.77
2018-01-19T04:42:13.674Z,27.80
2018-01-19T04:44:41.802Z,19.13
2018-01-19T04:47:09.978Z,23.80
2018-01-19T04:49:38.090Z,24.40
2018-01-19T04:52:06.248Z,19.10
2018-01-19T04:54:34.371Z,23.90
2018-01-19T04:57:03.267Z,25.53
2018-01-19T04:59:31.388Z,32.47
2018-01-19T05:01:59.681Z,24.93
2018-01-19T05:04:29.163Z,20.63
2018-01-19T05:06:57.266Z,35.30
2018-01-19T05:09:25.413Z,24.70
2018-01-19T05:11:53.529Z,24.47
2018-01-19T05:14:22.442Z,22.80
2018-01-19T05:16:50.557Z,25.30
2018-01-19T05:19:18.695Z,25.60
2018-01-19T05:21:46.795Z,30.80
2018-01-19T05:24:14.935Z,21.90
2018-01-19T05:26:43.063Z,21.13
2018-01-19T05:29:11.641Z,21.33
2018-01-19T05:31:39.787Z,27.60
2018-01-19T05:34:07.938Z,24.77
2018-01-19T05:36:36.046Z,25.73
2018-01-19T05:39:04.447Z,28.00
2018-01-19T05:41:32.552Z,25.13
2018-01-19T05:44:01.455Z,30.17
2018-01-19T05:46:29.561Z,24.70
2018-01-19T05:48:57.712Z,23.00
2018-01-19T05:51:25.830Z,34.60
2018-01-19T05:53:53.970Z,26.87
2018-01-19T05:56:22.078Z,23.57
2018-01-19T05:58:50.239Z,29.10
2018-01-19T06:01:18.418Z,20.03
2018-01-19T06:03:46.576Z,24.53
2018-01-19T06:06:14.692Z,29.17
2018-01-19T06:08:43.607Z,32.60
2018-01-19T06:11:11.827Z,20.80
2018-01-19T06:13:39.973Z,29.20
2018-01-19T06:16:08.586Z,21.53
2018-01-19T06:18:36.735Z,25.57
2018-01-19T06:21:04.838Z,29.60
2018-01-19T06:23:32.970Z,22.43
2018-01-19T06:26:01.086Z,28.40
2018-01-19T06:28:29.415Z,37.20
2018-01-19T06:30:57.523Z,23.37
2018-01-19T06:33:25.660Z,25.53
2018-01-19T06:35:53.794Z,25.27
2018-01-19T06:38:22.711Z,26.07
2018-01-19T06:40:50.837Z,24.40
2018-01-19T06:43:19.018Z,22.33
2018-01-19T06:45:47.216Z,25.57
2018-01-19T06:48:16.120Z,21.20
2018-01-19T06:50:44.991Z,25.10
2018-01-19T06:53:13.155Z,19.87
2018-01-19T06:55:41.262Z,25.40
2018-01-19T06:58:09.445Z,22.93
2018-01-19T07:00:37.695Z,23.90
2018-01-19T07:03:07.432Z,22.03
2018-01-19T07:05:35.563Z,24.70
2018-01-19T07:08:04.164Z,28.97
2018-01-19T07:10:32.286Z,32.73
2018-01-19T07:13:00.441Z,25.73
2018-01-19T07:15:28.965Z,28.40
2018-01-19T07:17:57.425Z,26.53
2018-01-19T07:20:27.615Z,24.57
2018-01-19T07:22:55.902Z,21.90
2018-01-19T07:25:24.023Z,27.70
2018-01-19T07:27:52.243Z,24.47
2018-01-19T07:30:20.500Z,23.70
2018-01-19T07:32:49.623Z,26.63
2018-01-19T07:35:17.746Z,21.97
2018-01-19T07:37:46.258Z,25.83
2018-01-19T07:40:14.404Z,31.10
2018-01-19T07:42:42.511Z,33.20
2018-01-19T07:45:11.298Z,37.47
2018-01-19T07:47:39.811Z,45.13
2018-01-19T07:50:07.943Z,33.43
2018-01-19T07:52:36.334Z,31.07
2018-01-19T07:55:05.250Z,38.97
2018-01-19T07:57:33.770Z,34.00
2018-01-19T08:00:02.026Z,33.13
2018-01-19T08:02:35.690Z,31.17
2018-01-19T08:05:05.965Z,34.00
2018-01-19T08:07:34.448Z,30.63
2018-01-19T08:10:04.238Z,28.67
2018-01-19T08:12:32.574Z,35.17
2018-01-19T08:15:00.945Z,30.00
2018-01-19T08:17:29.078Z,31.23
2018-01-19T08:19:57.229Z,28.77
2018-01-19T08:22:26.279Z,30.10
2018-01-19T08:24:54.443Z,29.17
2018-01-19T08:27:22.559Z,29.13
2018-01-19T08:29:51.470Z,35.23
2018-01-19T08:32:19.587Z,27.70
2018-01-19T08:34:47.720Z,32.93
2018-01-19T08:37:15.941Z,32.90
2018-01-19T08:39:44.103Z,29.80
2018-01-19T08:42:12.514Z,35.40
2018-01-19T08:44:40.888Z,32.23
2018-01-19T08:47:09.712Z,29.20
2018-01-19T08:49:38.234Z,30.13
2018-01-19T08:52:06.351Z,29.90
2018-01-19T08:54:35.247Z,26.77
2018-01-19T08:57:04.407Z,31.97
2018-01-19T08:59:32.622Z,31.10
2018-01-19T09:02:01.539Z,30.90
2018-01-19T09:04:29.790Z,28.97
2018-01-19T09:06:58.881Z,32.33
2018-01-19T09:09:27.843Z,35.00
2018-01-19T09:11:57.100Z,32.93
2018-01-19T09:14:27.922Z,28.67
2018-01-19T09:16:56.614Z,30.23
2018-01-19T09:19:24.775Z,31.37
2018-01-19T09:21:53.735Z,29.07
2018-01-19T09:24:21.882Z,29.07
2018-01-19T09:26:50.194Z,27.53
2018-01-19T09:29:18.395Z,27.60
2018-01-19T09:31:46.563Z,28.13
2018-01-19T09:34:14.776Z,28.03
2018-01-19T09:36:42.959Z,32.93
2018-01-19T09:39:11.084Z,32.70
2018-01-19T09:41:40.466Z,31.30
2018-01-19T09:44:08.690Z,28.47
2018-01-19T09:46:36.855Z,27.90
2018-01-19T09:49:05.128Z,27.10
2018-01-19T09:51:33.999Z,25.03
2018-01-19T09:54:02.142Z,28.20
2018-01-19T09:56:30.443Z,25.23
2018-01-19T09:58:58.579Z,25.80
2018-01-19T10:01:26.695Z,20.93
2018-01-19T10:03:54.872Z,18.67
2018-01-19T10:06:23.009Z,26.13
2018-01-19T10:08:51.183Z,16.53
2018-01-19T10:11:19.303Z,17.40
2018-01-19T10:13:48.224Z,16.87
2018-01-19T10:16:16.334Z,15.93
2018-01-19T10:18:44.464Z,18.53
2018-01-19T10:21:12.571Z,22.43
2018-01-19T10:23:40.706Z,16.30
2018-01-19T10:26:09.599Z,16.23
2018-01-19T10:28:38.475Z,14.40
2018-01-19T10:31:07.381Z,13.60
2018-01-19T10:33:35.519Z,13.60
2018-01-19T10:36:04.034Z,14.67
2018-01-19T10:38:32.897Z,12.30
2018-01-19T10:41:01.026Z,10.60
2018-01-19T10:43:29.143Z,13.60
2018-01-19T10:45:57.280Z,9.47
2018-01-19T10:48:25.863Z,12.13
2018-01-19T10:50:54.001Z,10.43
2018-01-19T10:53:22.113Z,11.93
2018-01-19T10:55:50.284Z,10.27
2018-01-19T10:58:18.390Z,14.53
2018-01-19T11:00:46.538Z,11.97
2018-01-19T11:03:14.652Z,9.73
2018-01-19T11:05:43.547Z,12.20
2018-01-19T11:08:12.418Z,12.07
2018-01-19T11:10:41.343Z,11.23
2018-01-19T11:13:09.907Z,9.97
2018-01-19T11:15:38.040Z,14.30
2018-01-19T11:18:06.150Z,11.93
2018-01-19T11:20:34.295Z,14.57
2018-01-19T11:23:02.701Z,14.17
2018-01-19T11:25:30.848Z,13.53
2018-01-19T11:27:59.015Z,14.00
2018-01-19T11:30:27.109Z,14.30
2018-01-19T11:32:55.210Z,15.80
2018-01-19T11:35:24.114Z,18.33
2018-01-19T11:37:52.986Z,15.70
2018-01-19T11:40:21.888Z,17.00
2018-01-19T11:42:50.783Z,14.03
2018-01-19T11:45:18.927Z,15.50
2018-01-19T11:47:47.036Z,12.27
2018-01-19T11:50:15.176Z,14.10
2018-01-19T11:52:43.288Z,13.43
2018-01-19T11:55:11.420Z,14.63
2018-01-19T11:57:39.525Z,12.37
2018-01-19T12:00:07.673Z,11.83
2018-01-19T12:02:36.668Z,13.73
2018-01-19T12:05:05.562Z,14.10
2018-01-19T12:07:34.427Z,13.63
2018-01-19T12:10:03.032Z,12.40
2018-01-19T12:12:32.011Z,12.43
2018-01-19T12:15:00.144Z,11.93
2018-01-19T12:17:28.250Z,12.67
2018-01-19T12:19:56.374Z,10.30
2018-01-19T12:22:24.480Z,11.97
2018-01-19T12:24:52.610Z,9.93
2018-01-19T12:27:20.719Z,9.93
2018-01-19T12:29:48.854Z,12.57
2018-01-19T12:32:18.129Z,11.13
2018-01-19T12:34:47.303Z,10.63
2018-01-19T12:37:16.238Z,12.20
2018-01-19T12:39:45.151Z,11.23
2018-01-19T12:42:13.892Z,13.17
2018-01-19T12:44:42.098Z,12.37
2018-01-19T12:47:10.999Z,17.67
2018-01-19T12:49:39.128Z,12.80
2018-01-19T12:52:07.232Z,17.07
2018-01-19T12:54:35.524Z,16.67
2018-01-19T12:57:04.237Z,17.93
2018-01-19T12:59:32.441Z,16.63
2018-01-19T13:02:00.891Z,17.47
2018-01-19T13:04:29.052Z,21.30
2018-01-19T13:06:57.192Z,17.50
2018-01-19T13:09:26.960Z,19.07
2018-01-19T13:11:55.211Z,21.13
2018-01-19T13:14:23.503Z,21.20
2018-01-19T13:16:51.679Z,18.73
2018-01-19T13:19:20.259Z,31.83
2018-01-19T13:21:48.402Z,24.60
2018-01-19T13:24:17.278Z,21.60
2018-01-19T13:26:45.423Z,22.90
2018-01-19T13:29:13.671Z,21.83
2018-01-19T13:31:41.817Z,24.10
2018-01-19T13:34:10.697Z,26.33
2018-01-19T13:36:38.928Z,24.50
2018-01-19T13:39:07.277Z,26.03
2018-01-19T13:41:35.526Z,25.03
2018-01-19T13:44:03.718Z,30.63
2018-01-19T13:46:32.907Z,27.90
2018-01-19T13:49:01.557Z,22.80
2018-01-19T13:51:29.868Z,24.53
2018-01-19T13:53:58.109Z,27.80
2018-01-19T13:56:27.277Z,21.03
2018-01-19T13:58:55.579Z,25.07
2018-01-19T14:01:23.708Z,22.90
2018-01-19T14:03:54.258Z,25.37
2018-01-19T14:06:22.459Z,21.37
2018-01-19T14:08:50.636Z,26.73
2018-01-19T14:11:18.773Z,23.00
2018-01-19T14:13:46.990Z,21.07
2018-01-19T14:16:15.153Z,27.03
2018-01-19T14:18:43.336Z,25.67
2018-01-19T14:21:11.479Z,21.67
2018-01-19T14:23:39.589Z,24.20
2018-01-19T14:26:07.742Z,23.90
2018-01-19T14:28:35.859Z,19.57
2018-01-19T14:31:04.608Z,27.60
2018-01-19T14:33:32.735Z,21.03
2018-01-19T14:36:01.646Z,26.73
2018-01-19T14:38:29.829Z,26.20
2018-01-19T14:40:57.967Z,24.37
2018-01-19T14:43:26.106Z,24.57
2018-01-19T14:45:54.253Z,28.80
2018-01-19T14:48:22.377Z,24.00
2018-01-19T14:50:50.534Z,19.17
2018-01-19T14:53:18.665Z,30.90
2018-01-19T14:55:47.559Z,27.30
2018-01-19T14:58:15.674Z,30.57
2018-01-19T15:00:43.813Z,22.77
2018-01-19T15:03:11.919Z,21.77
2018-01-19T15:05:40.054Z,24.00
2018-01-19T15:08:08.170Z,24.60
2018-01-19T15:10:36.301Z,21.27
2018-01-19T15:13:04.791Z,19.07
2018-01-19T15:15:33.426Z,21.63
2018-01-19T15:18:01.582Z,23.00
2018-01-19T15:20:29.759Z,21.67
2018-01-19T15:22:57.878Z,22.83
2018-01-19T15:25:26.037Z,25.57
2018-01-19T15:27:54.919Z,20.77
2018-01-19T15:30:23.811Z,21.37
2018-01-19T15:32:51.952Z,23.20
2018-01-19T15:35:20.076Z,25.77
2018-01-19T15:37:49.083Z,21.53
2018-01-19T15:40:17.185Z,21.83
2018-01-19T15:42:45.601Z,24.33
2018-01-19T15:45:13.737Z,23.30
2018-01-19T15:47:41.888Z,21.27
2018-01-19T15:50:10.022Z,17.67
2018-01-19T15:52:38.238Z,24.03
2018-01-19T15:55:06.447Z,21.23
2018-01-19T15:57:34.597Z,20.57
2018-01-19T16:00:03.162Z,20.10
2018-01-19T16:02:36.867Z,18.30
2018-01-19T16:05:05.035Z,20.53
2018-01-19T16:07:33.175Z,26.73
2018-01-19T16:10:01.389Z,18.07
2018-01-19T16:12:30.386Z,21.27
2018-01-19T16:14:58.502Z,23.17
2018-01-19T16:17:26.719Z,26.23
2018-01-19T16:19:54.996Z,41.93
2018-01-19T16:22:23.297Z,34.93
2018-01-19T16:24:51.523Z,27.60
2018-01-19T16:27:19.708Z,20.60
2018-01-19T16:29:48.607Z,47.27
2018-01-19T16:32:17.512Z,29.03
2018-01-19T16:34:45.629Z,49.17
2018-01-19T16:37:13.785Z,26.20
2018-01-19T16:39:43.597Z,25.10
2018-01-19T16:42:12.156Z,20.00
2018-01-19T16:44:41.032Z,19.43
2018-01-19T16:47:11.649Z,24.73
2018-01-19T16:49:40.986Z,14.70
2018-01-19T16:52:09.934Z,19.50
2018-01-19T16:54:39.755Z,19.23
2018-01-19T16:57:07.936Z,20.07
2018-01-19T16:59:36.040Z,17.67
2018-01-19T17:02:05.418Z,33.70
2018-01-19T17:04:34.370Z,37.53
2018-01-19T17:07:02.490Z,54.27
2018-01-19T17:09:30.763Z,23.17
2018-01-19T17:11:59.147Z,16.93
2018-01-19T17:14:27.441Z,13.67
2018-01-19T17:16:55.655Z,20.27
2018-01-19T17:19:23.876Z,16.40
2018-01-19T17:21:52.143Z,16.50
2018-01-19T17:24:20.296Z,24.70
2018-01-19T17:26:48.502Z,19.13
2018-01-19T17:29:16.817Z,17.90
2018-01-19T17:31:44.969Z,16.20
2018-01-19T17:34:15.463Z,20.47
2018-01-19T17:36:43.665Z,24.20
2018-01-19T17:39:11.775Z,27.13
2018-01-19T17:41:39.947Z,21.63
2018-01-19T17:44:08.076Z,24.27
2018-01-19T17:46:36.344Z,23.80
2018-01-19T17:49:04.814Z,54.10
2018-01-19T17:51:32.996Z,18.27
2018-01-19T17:54:01.922Z,10.17
2018-01-19T17:56:30.091Z,12.80
2018-01-19T17:58:58.529Z,10.17
2018-01-19T18:01:26.798Z,6.90
2018-01-19T18:03:54.974Z,11.93
2018-01-19T18:06:23.145Z,14.67
2018-01-19T18:08:53.822Z,10.90
2018-01-19T18:11:23.174Z,10.80
2018-01-19T18:13:51.340Z,11.57
2018-01-19T18:16:19.639Z,9.20
2018-01-19T18:18:48.641Z,9.33
2018-01-19T18:21:17.236Z,11.60
2018-01-19T18:23:45.401Z,13.67
2018-01-19T18:26:13.527Z,13.73
2018-01-19T18:28:41.690Z,12.43
2018-01-19T18:31:09.789Z,38.73
2018-01-19T18:33:37.923Z,36.70
2018-01-19T18:36:06.047Z,13.93
2018-01-19T18:38:34.319Z,22.77
2018-01-19T18:41:02.843Z,16.70
2018-01-19T18:43:30.984Z,21.93
2018-01-19T18:45:59.090Z,12.47
2018-01-19T18:48:27.873Z,15.70
2018-01-19T18:50:57.194Z,12.17
2018-01-19T18:53:25.334Z,12.17
2018-01-19T18:55:53.447Z,10.57
2018-01-19T18:58:21.684Z,13.10
2018-01-19T19:00:49.918Z,13.83
2018-01-19T19:03:18.855Z,18.07
2018-01-19T19:05:46.962Z,13.43
2018-01-19T19:08:15.111Z,19.43
2018-01-19T19:10:43.303Z,16.70
2018-01-19T19:13:11.575Z,10.83
2018-01-19T19:15:40.504Z,16.40
2018-01-19T19:18:09.492Z,18.17
2018-01-19T19:20:38.164Z,14.70
2018-01-19T19:23:06.388Z,13.27
2018-01-19T19:25:34.655Z,21.60
2018-01-19T19:28:03.310Z,15.10
2018-01-19T19:30:31.732Z,18.30
2018-01-19T19:33:00.245Z,15.90
2018-01-19T19:35:28.464Z,16.23
2018-01-19T19:37:56.693Z,16.90
2018-01-19T19:40:25.251Z,15.90
2018-01-19T19:42:53.463Z,25.83
2018-01-19T19:45:21.589Z,16.33
2018-01-19T19:47:51.124Z,25.70
2018-01-19T19:50:19.362Z,16.97
2018-01-19T19:52:48.271Z,17.60
2018-01-19T19:55:16.396Z,14.57
2018-01-19T19:57:44.568Z,16.00
2018-01-19T20:00:12.699Z,13.53
2018-01-19T20:02:41.037Z,18.87
2018-01-19T20:05:09.152Z,19.10
2018-01-19T20:07:37.298Z,17.73
2018-01-19T20:10:06.447Z,35.23
2018-01-19T20:12:34.591Z,28.37
2018-01-19T20:15:03.300Z,22.60
2018-01-19T20:17:31.484Z,25.20
2018-01-19T20:19:59.596Z,20.63
2018-01-19T20:22:27.746Z,18.20
2018-01-19T20:24:55.857Z,20.00
2018-01-19T20:27:24.847Z,20.30
2018-01-19T20:29:53.745Z,16.80
2018-01-19T20:32:22.651Z,15.63
2018-01-19T20:34:50.766Z,13.13
2018-01-19T20:37:18.927Z,16.03
2018-01-19T20:39:47.203Z,17.13
2018-01-19T20:42:15.375Z,16.57
2018-01-19T20:44:43.682Z,12.07
2018-01-19T20:47:11.840Z,18.93
2018-01-19T20:49:39.948Z,18.20
2018-01-19T20:52:08.296Z,21.33
2018-01-19T20:54:36.415Z,21.73
2018-01-19T20:57:04.611Z,16.60
2018-01-19T20:59:32.817Z,41.93
2018-01-19T21:02:00.978Z,43.70
2018-01-19T21:04:29.224Z,54.87
2018-01-19T21:06:57.380Z,72.30
2018-01-19T21:09:26.297Z,35.70
2018-01-19T21:11:54.438Z,24.20
2018-01-19T21:14:23.362Z,20.70
2018-01-19T21:16:51.608Z,14.20
2018-01-19T21:19:19.971Z,12.53
2018-01-19T21:21:48.127Z,13.43
2018-01-19T21:24:16.370Z,9.77
2018-01-19T21:26:44.515Z,10.77
2018-01-19T21:29:13.433Z,8.90
2018-01-19T21:31:41.547Z,8.80
2018-01-19T21:34:09.711Z,8.30
2018-01-19T21:36:37.830Z,9.53
2018-01-19T21:39:06.726Z,9.87
2018-01-19T21:41:35.595Z,13.73
2018-01-19T21:44:03.731Z,8.67
2018-01-19T21:46:31.838Z,8.20
2018-01-19T21:48:59.969Z,9.40
2018-01-19T21:51:28.074Z,7.90
2018-01-19T21:53:57.822Z,10.53
2018-01-19T21:56:25.942Z,10.53
2018-01-19T21:58:54.075Z,14.47
2018-01-19T22:01:22.186Z,15.37
2018-01-19T22:03:50.310Z,13.50
2018-01-19T22:06:18.420Z,19.10
2018-01-19T22:08:46.547Z,19.43
2018-01-19T22:11:15.411Z,14.03
2018-01-19T22:13:43.547Z,16.10
2018-01-19T22:16:11.667Z,18.50
2018-01-19T22:18:39.812Z,15.87
2018-01-19T22:21:07.919Z,18.63
2018-01-19T22:23:36.051Z,20.07
2018-01-19T22:26:04.370Z,15.73
2018-01-19T22:28:32.500Z,18.30
2018-01-19T22:31:00.625Z,16.90
2018-01-19T22:33:28.772Z,14.70
2018-01-19T22:35:56.892Z,14.23
2018-01-19T22:38:25.038Z,10.63
2018-01-19T22:40:53.140Z,12.70
2018-01-19T22:43:21.269Z,11.40
2018-01-19T22:45:49.386Z,10.80
2018-01-19T22:48:17.523Z,11.00
2018-01-19T22:50:45.627Z,6.37
2018-01-19T22:53:13.763Z,7.43
2018-01-19T22:55:41.866Z,11.67
2018-01-19T22:58:09.991Z,6.33
2018-01-19T23:00:38.096Z,5.60
2018-01-19T23:03:06.222Z,7.30
2018-01-19T23:05:34.319Z,9.93
2018-01-19T23:08:02.463Z,7.73
2018-01-19T23:10:30.583Z,8.00
2018-01-19T23:12:58.718Z,10.40
2018-01-19T23:15:26.829Z,14.67
2018-01-19T23:17:54.962Z,16.43
2018-01-19T23:20:23.064Z,16.77
2018-01-19T23:22:51.205Z,18.23
2018-01-19T23:25:19.352Z,20.47
2018-01-19T23:27:47.462Z,13.73
2018-01-19T23:30:15.613Z,16.43
2018-01-19T23:32:43.728Z,16.90
2018-01-19T23:35:11.907Z,22.33
2018-01-19T23:37:40.025Z,21.90
2018-01-19T23:40:08.160Z,16.17
2018-01-19T23:42:36.265Z,18.10
2018-01-19T23:45:04.410Z,21.93
2018-01-19T23:47:32.518Z,17.40
2018-01-19T23:50:00.795Z,13.30
2018-01-19T23:52:28.924Z,14.70
2018-01-19T23:54:57.830Z,18.50
2018-01-19T23:57:25.930Z,13.07
2018-01-19T23:59:54.070Z,19.03
